Montauk — 9HHE8 — position and weather

sailwx.info

Track history (hours):
 
Tides and Currents Weather Stations Pressure Air Temp Water Temp Dewpoint Dewpoint Depression Visibility Wind Speed Wind Dir Waves Ship Positions

Montauk

Last reported at 2017-Nov-30 17:49 UTC. Time now 2017-Dec-15 06:27 UTC.
Position S 05°01' E 011°11'.
Warning: this ship's position is 14 days out of date.

Length 106 m; draft 5 m.

Type: Tanker. MMSI: 215978000.

Date/timePositionNaut miles runAvg speedWind from/ knotsBaromVisibWave heightAir tempDewpointWater temp
2017-Nov-30 17:49S 05°01' E 011°11'9 0.3
2017-Nov-29 13:15S 04°58' E 011°19'2 9.0
2017-Nov-29 13:00S 04°58' E 011°22'5 8.6
2017-Nov-29 12:23S 04°57' E 011°27'  
2017-Nov-25 15:12S 04°59' E 011°25'5 7.8
2017-Nov-25 14:38S 05°01' E 011°21'1 7.5
2017-Nov-25 14:30S 05°01' E 011°20'4 7.6
2017-Nov-25 14:00S 05°03' E 011°17'4 7.1
2017-Nov-25 13:25S 05°04' E 011°13'0 0.7
2017-Nov-25 13:00S 05°04' E 011°13'1 1.4
2017-Nov-25 12:14S 05°04' E 011°14'0 1.3
2017-Nov-25 11:58S 05°04' E 011°14'1 1.5
2017-Nov-25 11:30S 05°04' E 011°15'1 1.8
2017-Nov-25 11:01S 05°03' E 011°15'1 1.8
2017-Nov-25 10:22S 05°03' E 011°16'1 1.6
2017-Nov-25 10:00S 05°03' E 011°17'1 1.7
2017-Nov-25 09:30S 05°02' E 011°18'1 1.7
2017-Nov-25 09:01S 05°02' E 011°19'0 0.9
2017-Nov-25 08:30S 05°02' E 011°19'1 1.5
2017-Nov-25 08:00S 05°02' E 011°20'1 1.6
2017-Nov-25 07:30S 05°01' E 011°20'2 4.4
2017-Nov-25 07:00S 04°59' E 011°20'1 2.8
2017-Nov-25 06:30S 04°59' E 011°22'2 3.4
2017-Nov-25 06:01S 04°58' E 011°23'2 3.6
2017-Nov-25 05:30S 04°57' E 011°25'2 3.8
2017-Nov-25 04:59S 04°56' E 011°27'  
Track history (hours):
 
Tides and Currents Weather Stations Pressure Air Temp Water Temp Dewpoint Dewpoint Depression Visibility Wind Speed Wind Dir Waves Ship Positions

Montauk

Last reported at 2017-Nov-30 17:49 UTC. Time now 2017-Dec-15 06:27 UTC.
Position S 05°01' E 011°11'.
Warning: this ship's position is 14 days out of date.

Length 106 m; draft 5 m.

Type: Tanker. MMSI: 215978000.

Date/timePositionNaut miles runAvg speedWind from/ knotsBaromVisibWave heightAir tempDewpointWater temp
2017-Nov-30 17:49S 05°01' E 011°11'9 0.3
2017-Nov-29 13:15S 04°58' E 011°19'2 9.0
2017-Nov-29 13:00S 04°58' E 011°22'5 8.6
2017-Nov-29 12:23S 04°57' E 011°27'  
2017-Nov-25 15:12S 04°59' E 011°25'5 7.8
2017-Nov-25 14:38S 05°01' E 011°21'1 7.5
2017-Nov-25 14:30S 05°01' E 011°20'4 7.6
2017-Nov-25 14:00S 05°03' E 011°17'4 7.1
2017-Nov-25 13:25S 05°04' E 011°13'0 0.7
2017-Nov-25 13:00S 05°04' E 011°13'1 1.4
2017-Nov-25 12:14S 05°04' E 011°14'0 1.3
2017-Nov-25 11:58S 05°04' E 011°14'1 1.5
2017-Nov-25 11:30S 05°04' E 011°15'1 1.8
2017-Nov-25 11:01S 05°03' E 011°15'1 1.8
2017-Nov-25 10:22S 05°03' E 011°16'1 1.6
2017-Nov-25 10:00S 05°03' E 011°17'1 1.7
2017-Nov-25 09:30S 05°02' E 011°18'1 1.7
2017-Nov-25 09:01S 05°02' E 011°19'0 0.9
2017-Nov-25 08:30S 05°02' E 011°19'1 1.5
2017-Nov-25 08:00S 05°02' E 011°20'1 1.6
2017-Nov-25 07:30S 05°01' E 011°20'2 4.4
2017-Nov-25 07:00S 04°59' E 011°20'1 2.8
2017-Nov-25 06:30S 04°59' E 011°22'2 3.4
2017-Nov-25 06:01S 04°58' E 011°23'2 3.6
2017-Nov-25 05:30S 04°57' E 011°25'2 3.8
2017-Nov-25 04:59S 04°56' E 011°27'  

Dump ship's entire track history